Time;durP1;ratioP1;P1;durP2;ratioP2;P2;SDS_P1;SDS_P2;PMS_P1;PMS_P2;Temp;Humidity;BMP_temperature;BMP_pressure;BME280_temperature;BME280_humidity;BME280_pressure;Samples;Min_cycle;Max_cycle;Signal;HPM_P1;HPM_P2
2022/03/30 00:00:34;;;;;;;;;15.00;12.33;;;;;15.33;38.90;98209.59;5034124;28;45408;-79
2022/03/30 00:02:59;;;;;;;;;15.00;13.00;;;;;15.31;39.28;98208.00;5050665;28;45457;-79
2022/03/30 00:05:24;;;;;;;;;12.67;11.33;;;;;15.27;39.06;98207.38;5035178;28;45303;-79
2022/03/30 00:07:54;;;;;;;;;14.00;12.33;;;;;15.22;39.38;98214.00;5035419;28;45295;-79
2022/03/30 00:10:20;;;;;;;;;13.00;12.00;;;;;15.17;39.83;98206.38;5035175;28;45405;-79
2022/03/30 00:12:47;;;;;;;;;17.00;13.00;;;;;15.14;39.78;98214.56;5034611;28;45599;-78
2022/03/30 00:15:14;;;;;;;;;13.25;9.75;;;;;15.14;39.47;98219.88;5034995;28;46886;-79
2022/03/30 00:17:39;;;;;;;;;14.75;13.50;;;;;15.15;39.74;98224.22;5035060;28;45543;-79
2022/03/30 00:20:05;;;;;;;;;15.33;12.67;;;;;15.15;40.22;98229.53;5035391;28;45259;-79
2022/03/30 00:22:31;;;;;;;;;15.75;14.25;;;;;15.13;40.44;98228.78;5035055;28;45283;-78
2022/03/30 00:24:56;;;;;;;;;13.00;13.00;;;;;15.10;40.88;98236.13;5033549;28;47116;-78
2022/03/30 00:27:21;;;;;;;;;12.67;11.67;;;;;15.02;40.54;98236.69;5034507;28;45420;-79
2022/03/30 00:29:47;;;;;;;;;18.33;13.00;;;;;14.94;42.24;98228.41;5033783;28;45394;-79
2022/03/30 00:32:13;;;;;;;;;14.00;13.00;;;;;14.92;43.14;98230.31;5035316;28;45335;-79
2022/03/30 00:34:41;;;;;;;;;18.67;13.33;;;;;14.90;42.79;98227.81;5034697;28;46420;-79
2022/03/30 00:37:07;;;;;;;;;14.00;14.00;;;;;14.91;42.77;98231.31;5034933;28;45428;-79
2022/03/30 00:39:33;;;;;;;;;13.25;8.75;;;;;14.89;44.53;98227.91;5033326;28;45401;-79
2022/03/30 00:41:58;;;;;;;;;18.33;14.00;;;;;14.84;44.38;98222.09;5034404;28;45309;-79
2022/03/30 00:44:24;;;;;;;;;16.00;12.33;;;;;14.82;44.22;98226.66;5034696;28;45556;-79
2022/03/30 00:46:49;;;;;;;;;14.33;12.00;;;;;14.84;44.99;98235.34;5034872;28;45235;-79
2022/03/30 00:49:15;;;;;;;;;14.00;14.00;;;;;14.84;44.50;98224.75;5034922;28;45476;-79
2022/03/30 00:51:41;;;;;;;;;14.33;12.67;;;;;14.82;44.49;98222.19;5037426;28;45331;-79
2022/03/30 00:54:07;;;;;;;;;17.00;13.67;;;;;14.78;44.60;98222.50;5038171;28;46068;-80
2022/03/30 00:56:35;;;;;;;;;14.67;11.67;;;;;14.68;43.17;98210.88;5038237;28;45335;-78
2022/03/30 00:59:05;;;;;;;;;17.67;13.67;;;;;14.62;44.60;98223.59;5038064;28;45441;-79
2022/03/30 01:01:30;;;;;;;;;15.67;13.00;;;;;14.61;43.95;98221.06;5038182;28;45346;-79
2022/03/30 01:03:56;;;;;;;;;14.67;13.33;;;;;14.59;44.84;98212.34;5038045;28;45385;-79
2022/03/30 01:06:21;;;;;;;;;15.67;15.33;;;;;14.55;47.21;98214.41;5038227;28;45307;-79
2022/03/30 01:08:48;;;;;;;;;16.33;14.67;;;;;14.47;47.33;98200.81;5038353;28;45816;-79
2022/03/30 01:11:15;;;;;;;;;18.33;14.67;;;;;14.44;48.59;98202.84;5038153;28;45357;-79
2022/03/30 01:13:41;;;;;;;;;16.00;14.00;;;;;14.39;48.46;98203.16;5036566;28;47398;-79
2022/03/30 01:16:06;;;;;;;;;14.00;13.00;;;;;14.30;49.46;98204.63;5038022;28;45317;-79
2022/03/30 01:18:41;;;;;;;;;16.00;14.00;;;;;14.20;49.87;98205.38;5037044;28;45305;-79
2022/03/30 01:21:10;;;;;;;;;18.00;14.00;;;;;14.09;50.78;98206.09;5037665;28;45346;-79
2022/03/30 01:23:35;;;;;;;;;17.00;14.67;;;;;14.02;50.68;98198.69;5053000;28;46217;-79
2022/03/30 01:26:04;;;;;;;;;16.67;15.33;;;;;13.93;52.07;98200.16;5037901;28;45294;-79
2022/03/30 01:28:32;;;;;;;;;18.67;16.33;;;;;13.82;52.71;98202.69;5037725;28;45434;-79
2022/03/30 01:33:46;;;;;;;;;19.00;16.67;;;;;13.61;55.08;98203.19;5037590;28;45396;-79
2022/03/30 01:36:15;;;;;;;;;19.00;15.67;;;;;13.50;55.83;98205.72;5037677;28;45240;-79
2022/03/30 01:38:42;;;;;;;;;17.00;16.67;;;;;13.38;54.04;98203.03;5038084;28;45341;-79
2022/03/30 01:41:08;;;;;;;;;23.00;17.33;;;;;13.27;53.97;98204.56;5037597;28;45505;-79
2022/03/30 01:43:33;;;;;;;;;16.67;13.33;;;;;13.17;54.89;98198.19;5035768;28;47413;-79
2022/03/30 01:45:59;;;;;;;;;20.00;15.00;;;;;13.09;56.05;98192.50;5036496;28;45362;-79
2022/03/30 01:48:24;;;;;;;;;21.00;18.00;;;;;12.99;57.02;98191.41;5037903;28;45348;-79
2022/03/30 01:50:50;;;;;;;;;19.67;15.33;;;;;12.90;59.13;98189.38;5053290;28;45314;-80
2022/03/30 01:53:15;;;;;;;;;12.33;11.33;;;;;12.82;57.98;98194.31;5037446;28;45595;-79
2022/03/30 01:55:41;;;;;;;;;24.33;19.00;;;;;12.75;62.27;98187.69;5037375;28;45393;-79
2022/03/30 01:58:06;;;;;;;;;17.67;15.00;;;;;12.63;58.44;98188.47;5037494;28;45461;-79
2022/03/30 02:00:32;;;;;;;;;22.00;17.67;;;;;12.48;57.65;98182.38;5037491;28;45397;-80
2022/03/30 02:02:58;;;;;;;;;10.33;10.33;;;;;12.33;62.04;98186.81;5037125;28;46207;-80
2022/03/30 02:05:24;;;;;;;;;21.67;19.67;;;;;12.20;59.25;98188.53;5036066;28;45221;-79
2022/03/30 02:07:50;;;;;;;;;17.00;17.00;;;;;12.07;62.55;98183.13;5037539;28;45449;-80
2022/03/30 02:10:15;;;;;;;;;10.00;5.00;;;;;11.97;63.28;98182.00;5037472;28;45513;-80
2022/03/30 02:12:41;;;;;;;;;17.67;16.00;;;;;11.87;64.00;98186.16;5036927;28;45405;-80
2022/03/30 02:15:10;;;;;;;;;11.33;8.00;;;;;11.75;63.75;98182.41;5037391;28;45577;-80
2022/03/30 02:17:36;;;;;;;;;18.33;17.00;;;;;11.67;66.84;98175.88;5037223;28;45437;-80
2022/03/30 02:20:03;;;;;;;;;16.00;15.33;;;;;11.57;65.14;98172.09;5037029;28;45169;-80
2022/03/30 02:22:28;;;;;;;;;21.67;15.33;;;;;11.50;64.89;98174.25;5036956;28;46452;-80
2022/03/30 02:24:54;;;;;;;;;21.33;21.33;;;;;11.48;68.40;98182.25;5037113;28;45269;-80
2022/03/30 02:27:19;;;;;;;;;20.33;20.00;;;;;11.43;68.36;98175.53;5036854;28;45558;-80
2022/03/30 02:29:49;;;;;;;;;22.67;16.33;;;;;11.37;68.18;98175.91;5036651;28;45483;-80
2022/03/30 02:32:15;;;;;;;;;23.67;19.33;;;;;11.29;69.10;98172.84;5051824;28;48530;-79
2022/03/30 02:34:42;;;;;;;;;18.67;16.00;;;;;11.19;69.92;98169.91;5036772;28;45299;-79
2022/03/30 02:37:08;;;;;;;;;17.00;15.67;;;;;11.11;71.67;98165.06;5035525;28;45415;-79
2022/03/30 02:39:34;;;;;;;;;20.67;16.33;;;;;11.05;72.22;98175.13;5036977;28;45408;-79
2022/03/30 02:42:00;;;;;;;;;18.00;17.33;;;;;10.99;72.48;98164.94;5035168;28;47015;-80
2022/03/30 02:44:26;;;;;;;;;19.33;17.00;;;;;10.91;71.95;98173.25;5036616;28;45291;-79
2022/03/30 02:46:51;;;;;;;;;18.00;17.00;;;;;10.85;73.58;98168.34;5036833;28;45384;-79
2022/03/30 02:49:17;;;;;;;;;21.00;15.33;;;;;10.80;72.56;98155.41;5036739;28;45368;-79
2022/03/30 02:51:42;;;;;;;;;20.00;18.00;;;;;10.78;72.83;98154.66;5036527;28;45468;-80
2022/03/30 02:54:07;;;;;;;;;16.00;14.00;;;;;10.77;74.79;98160.00;5052136;28;45365;-79
2022/03/30 02:56:33;;;;;;;;;16.33;16.33;;;;;10.76;72.74;98161.78;5035628;28;45336;-80
2022/03/30 02:58:59;;;;;;;;;19.33;18.00;;;;;10.76;75.47;98160.94;5036439;28;45564;-78
2022/03/30 03:01:24;;;;;;;;;18.00;16.00;;;;;10.73;74.68;98153.19;5036294;28;46441;-78
2022/03/30 03:03:50;;;;;;;;;18.67;17.67;;;;;10.72;75.29;98159.44;5036348;28;45465;-78
2022/03/30 03:06:16;;;;;;;;;22.00;16.67;;;;;10.72;74.69;98157.66;5036440;28;45368;-78
2022/03/30 03:08:44;;;;;;;;;21.00;19.00;;;;;10.73;74.99;98153.19;5034953;28;45366;-77
2022/03/30 03:11:10;;;;;;;;;25.67;17.67;;;;;10.71;75.63;98142.78;5036034;28;46455;-77
2022/03/30 03:13:36;;;;;;;;;24.00;20.00;;;;;10.72;74.17;98141.84;5034593;28;45466;-77
2022/03/30 03:16:01;;;;;;;;;18.00;16.67;;;;;10.75;73.65;98146.91;5031931;28;45985;-77
2022/03/30 03:18:27;;;;;;;;;17.67;17.00;;;;;10.75;74.46;98139.00;5050101;28;45646;-77
2022/03/30 03:20:52;;;;;;;;;20.67;20.00;;;;;10.76;74.04;98145.13;5036007;28;45732;-77
2022/03/30 03:23:18;;;;;;;;;18.33;15.67;;;;;10.75;74.89;98140.78;5051088;28;45408;-77
2022/03/30 03:25:44;;;;;;;;;21.67;18.33;;;;;10.74;73.79;98134.66;5035856;28;45456;-77
2022/03/30 03:28:16;;;;;;;;;10.67;5.33;;;;;10.73;73.64;98130.31;5035786;28;45522;-77
2022/03/30 03:30:42;;;;;;;;;23.67;19.00;;;;;10.72;77.11;98131.28;5051330;28;46829;-76
2022/03/30 03:33:09;;;;;;;;;20.33;18.67;;;;;10.70;75.64;98142.84;5035527;28;45395;-76
2022/03/30 03:35:34;;;;;;;;;24.00;17.00;;;;;10.67;77.55;98137.75;5035715;28;45517;-77
2022/03/30 03:38:01;;;;;;;;;19.00;16.00;;;;;10.64;77.51;98130.84;5035720;28;45362;-77
2022/03/30 03:40:27;;;;;;;;;25.67;20.67;;;;;10.64;77.25;98132.66;5035152;28;45388;-77
2022/03/30 03:42:53;;;;;;;;;24.67;18.00;;;;;10.62;76.42;98134.50;5035392;28;45393;-77
2022/03/30 03:45:19;;;;;;;;;22.33;20.33;;;;;10.61;79.58;98136.28;5035620;28;45330;-77
2022/03/30 03:47:45;;;;;;;;;23.00;19.67;;;;;10.58;78.68;98131.19;5034248;28;45496;-77
2022/03/30 03:50:11;;;;;;;;;24.00;19.67;;;;;10.56;76.50;98130.41;5034142;28;45655;-77
2022/03/30 03:52:37;;;;;;;;;26.00;23.33;;;;;10.56;78.82;98124.34;5035500;28;45475;-77
2022/03/30 03:55:03;;;;;;;;;26.67;21.00;;;;;10.55;78.91;98122.63;5035334;28;45457;-77
2022/03/30 03:57:29;;;;;;;;;25.33;22.00;;;;;10.53;77.29;98116.59;5035147;28;45290;-77
2022/03/30 03:59:55;;;;;;;;;28.67;22.33;;;;;10.49;80.28;98111.50;5035078;28;45716;-77
2022/03/30 04:02:21;;;;;;;;;24.67;21.33;;;;;10.46;79.52;98111.66;5035279;28;45358;-77
2022/03/30 04:04:46;;;;;;;;;26.33;23.00;;;;;10.45;79.59;98117.00;5032245;28;45388;-77
2022/03/30 04:07:12;;;;;;;;;24.67;22.00;;;;;10.43;82.20;98114.44;5033406;28;45570;-77
2022/03/30 04:09:38;;;;;;;;;29.33;24.33;;;;;10.41;78.10;98111.06;5034134;28;45503;-77
2022/03/30 04:12:04;;;;;;;;;20.67;17.00;;;;;10.40;81.33;98116.41;5034732;28;45380;-77
2022/03/30 04:14:30;;;;;;;;;26.00;19.00;;;;;10.38;79.46;98113.88;5034290;28;45437;-77
2022/03/30 04:16:55;;;;;;;;;25.67;23.00;;;;;10.34;79.28;98104.44;5033236;28;45428;-77
2022/03/30 04:19:21;;;;;;;;;22.67;19.67;;;;;10.34;82.11;98109.72;5034078;28;45463;-77
2022/03/30 04:21:46;;;;;;;;;12.33;11.67;;;;;10.34;79.30;98093.91;5034436;28;45399;-76
2022/03/30 04:24:12;;;;;;;;;23.67;23.00;;;;;10.35;83.12;98114.03;5034941;28;45381;-77
2022/03/30 04:26:38;;;;;;;;;25.00;23.67;;;;;10.34;80.27;98108.84;5033683;28;45541;-77
2022/03/30 04:29:05;;;;;;;;;22.67;20.67;;;;;10.32;82.85;98105.44;5034490;28;45431;-78
2022/03/30 04:31:32;;;;;;;;;19.67;18.00;;;;;10.32;81.65;98108.09;5034332;28;45469;-77
2022/03/30 04:33:58;;;;;;;;;31.00;24.67;;;;;10.31;81.58;98096.69;5034188;28;45375;-77
2022/03/30 04:36:23;;;;;;;;;26.00;25.33;;;;;10.31;82.22;98098.47;5033528;28;45470;-77
2022/03/30 04:38:49;;;;;;;;;27.67;25.00;;;;;10.32;79.48;98097.56;5034338;28;46221;-77
2022/03/30 04:41:14;;;;;;;;;21.00;20.00;;;;;10.32;78.92;98097.56;5034302;28;45539;-76
2022/03/30 04:43:40;;;;;;;;;22.67;21.33;;;;;10.32;80.78;98105.44;5034093;28;45422;-77
2022/03/30 04:46:06;;;;;;;;;26.00;24.00;;;;;10.33;81.76;98093.97;5033816;28;45385;-77
2022/03/30 04:48:32;;;;;;;;;29.33;26.33;;;;;10.34;80.91;98090.41;5031866;28;45763;-76
2022/03/30 04:50:58;;;;;;;;;28.33;24.67;;;;;10.35;82.29;98092.13;5049284;28;45413;-76
2022/03/30 04:53:23;;;;;;;;;26.00;23.00;;;;;10.36;82.19;98096.47;5034291;28;45423;-77
2022/03/30 04:55:49;;;;;;;;;32.00;26.00;;;;;10.38;80.91;98097.22;5033411;28;45552;-79
2022/03/30 04:58:15;;;;;;;;;22.67;19.33;;;;;10.37;81.74;98091.09;5033414;28;46341;-76
2022/03/30 05:00:41;;;;;;;;;24.67;24.00;;;;;10.38;82.76;98097.22;5033832;28;45327;-79
2022/03/30 05:03:07;;;;;;;;;30.33;25.67;;;;;10.38;82.62;98091.94;5033490;28;45738;-78
2022/03/30 05:05:32;;;;;;;;;29.33;23.67;;;;;10.38;82.17;98089.31;5033215;28;45553;-79
2022/03/30 05:07:58;;;;;;;;;30.00;23.67;;;;;10.39;82.34;98083.13;5033789;28;46366;-76
2022/03/30 05:10:24;;;;;;;;;34.00;27.00;;;;;10.41;83.12;98078.59;5048473;28;45439;-79
2022/03/30 05:12:50;;;;;;;;;27.33;22.33;;;;;10.41;82.24;98086.50;5033761;28;45721;-79
2022/03/30 05:15:15;;;;;;;;;28.33;25.33;;;;;10.41;83.02;98071.53;5033069;28;45551;-79
2022/03/30 05:17:46;;;;;;;;;26.67;25.67;;;;;10.42;82.55;98075.88;5031673;28;46469;-79
2022/03/30 05:20:13;;;;;;;;;33.33;22.67;;;;;10.47;82.12;98078.25;5033576;28;45444;-79
2022/03/30 05:22:38;;;;;;;;;24.33;23.00;;;;;10.52;79.86;98076.22;5048725;28;45278;-67
2022/03/30 05:25:05;;;;;;;;;14.00;13.33;;;;;10.59;79.79;98079.34;5033649;28;45335;-67
2022/03/30 05:27:31;;;;;;;;;23.00;23.00;;;;;10.64;82.40;98083.41;5054008;28;46673;-67
2022/03/30 05:29:57;;;;;;;;;28.33;26.33;;;;;10.67;81.44;98077.97;5033811;28;45828;-66
2022/03/30 05:32:22;;;;;;;;;29.33;22.00;;;;;10.68;81.67;98086.72;5031940;28;45683;-66
2022/03/30 05:34:47;;;;;;;;;30.33;27.67;;;;;10.65;81.68;98081.63;5032554;28;45460;-67
2022/03/30 05:37:13;;;;;;;;;28.67;25.33;;;;;10.64;81.93;98086.06;5035573;28;45662;-66
2022/03/30 05:39:42;;;;;;;;;28.00;24.33;;;;;10.63;80.77;98083.50;5051894;28;45567;-67
2022/03/30 05:42:09;;;;;;;;;26.00;24.00;;;;;10.61;81.50;98083.59;5036253;28;45507;-67
2022/03/30 05:44:35;;;;;;;;;29.33;26.33;;;;;10.58;80.84;98093.44;5067942;28;45569;-67
2022/03/30 05:47:00;;;;;;;;;22.67;22.00;;;;;10.55;81.65;98091.00;5034158;28;45448;-68
2022/03/30 05:49:25;;;;;;;;;28.33;26.00;;;;;10.49;82.18;98090.41;5035607;28;45410;-67
2022/03/30 05:51:51;;;;;;;;;24.33;23.00;;;;;10.46;80.54;98098.47;5033526;28;45442;-67
2022/03/30 05:54:16;;;;;;;;;31.33;25.67;;;;;10.43;81.56;98093.38;5035318;28;45523;-67
2022/03/30 05:57:00;;;;;;;;;27.33;25.33;;;;;10.41;82.44;98102.28;5034801;28;45645;-67
2022/03/30 05:59:46;;;;;;;;;37.00;30.00;;;;;10.38;82.02;98099.84;5036192;28;45401;-67
2022/03/30 06:02:13;;;;;;;;;27.00;25.67;;;;;10.36;83.26;98097.31;5031361;28;45420;-68
2022/03/30 06:04:41;;;;;;;;;29.33;24.00;;;;;10.32;82.40;98093.13;5034718;28;45478;-68
2022/03/30 06:07:07;;;;;;;;;24.00;24.00;;;;;10.32;81.69;98102.81;5035452;28;45405;-67
2022/03/30 06:09:35;;;;;;;;;25.00;24.33;;;;;10.31;82.86;98098.47;5035594;28;45362;-67
2022/03/30 06:12:01;;;;;;;;;22.67;21.33;;;;;10.32;81.79;98097.56;5035727;28;45452;-67
2022/03/30 06:14:27;;;;;;;;;26.33;23.67;;;;;10.32;82.18;98092.28;5035961;28;45248;-67
2022/03/30 06:16:52;;;;;;;;;26.67;25.00;;;;;10.32;79.71;98101.03;5033399;28;45607;-67
2022/03/30 06:19:18;;;;;;;;;26.33;24.67;;;;;10.32;81.81;98100.19;5035644;28;45424;-66
2022/03/30 06:21:45;;;;;;;;;22.33;21.33;;;;;10.30;82.46;98102.91;5036304;28;45459;-66
2022/03/30 06:24:12;;;;;;;;;29.33;24.33;;;;;10.33;81.66;98094.84;5035966;28;45338;-67
2022/03/30 06:26:39;;;;;;;;;28.00;24.33;;;;;10.36;82.06;98099.94;5035450;28;45441;-70
2022/03/30 06:29:04;;;;;;;;;31.67;25.67;;;;;10.37;83.10;98095.53;5035086;28;45334;-66
2022/03/30 06:31:31;;;;;;;;;26.67;25.00;;;;;10.39;83.10;98099.75;5035359;28;45539;-66
2022/03/30 06:33:57;;;;;;;;;26.67;24.00;;;;;10.43;83.37;98100.44;5035680;28;45318;-66
2022/03/30 06:36:23;;;;;;;;;28.00;23.67;;;;;10.45;82.94;98096.78;5035265;28;45659;-65
2022/03/30 06:38:48;;;;;;;;;26.67;23.67;;;;;10.49;81.40;98103.59;5035592;28;45413;-66
2022/03/30 06:41:16;;;;;;;;;26.33;23.33;;;;;10.54;79.54;98099.84;5034060;28;45523;-65
2022/03/30 06:43:42;;;;;;;;;27.33;26.00;;;;;10.56;81.49;98098.78;5049882;28;45524;-66
2022/03/30 06:46:11;;;;;;;;;29.33;27.00;;;;;10.61;81.44;98103.81;5033616;28;45408;-66
2022/03/30 06:48:36;;;;;;;;;30.33;27.00;;;;;10.62;82.45;98098.47;5033106;28;45490;-66
2022/03/30 06:51:02;;;;;;;;;32.00;28.33;;;;;10.65;81.92;98090.38;5034765;28;45433;-65
2022/03/30 06:53:27;;;;;;;;;30.33;27.67;;;;;10.71;81.86;98086.56;5035782;28;45464;-65
2022/03/30 06:55:53;;;;;;;;;30.33;27.33;;;;;10.75;81.57;98088.91;5035490;28;45711;-66
2022/03/30 06:58:18;;;;;;;;;24.33;22.67;;;;;10.80;81.34;98091.28;5035178;28;45429;-65
2022/03/30 07:00:44;;;;;;;;;32.33;26.00;;;;;10.84;81.35;98091.03;5035645;28;46048;-65
2022/03/30 07:03:09;;;;;;;;;26.00;23.33;;;;;10.87;81.62;98083.91;5033619;28;45476;-65
2022/03/30 07:05:35;;;;;;;;;34.67;28.00;;;;;10.91;81.03;98085.38;5035279;28;45770;-65
2022/03/30 07:10:44;;;;;;;;;25.67;24.00;;;;;11.00;80.06;98080.44;5035717;28;45524;-65
2022/03/30 07:13:10;;;;;;;;;25.00;22.67;;;;;11.04;80.56;98075.84;5035012;28;45496;-65
2022/03/30 07:15:35;;;;;;;;;26.00;26.00;;;;;11.05;80.36;98069.63;5035362;28;46436;-65
2022/03/30 07:18:01;;;;;;;;;24.67;23.33;;;;;11.08;80.14;98069.44;5034994;28;45422;-65
2022/03/30 07:20:30;;;;;;;;;29.00;22.33;;;;;11.14;80.07;98061.16;5035170;28;45428;-65
2022/03/30 07:22:57;;;;;;;;;26.67;23.67;;;;;11.21;79.82;98064.31;5034794;28;45464;-65
2022/03/30 07:25:23;;;;;;;;;22.00;19.67;;;;;11.27;78.90;98059.50;5034788;28;45612;-65
2022/03/30 07:27:51;;;;;;;;;32.00;25.00;;;;;11.33;79.07;98053.84;5034413;28;45468;-65
2022/03/30 07:30:17;;;;;;;;;20.33;19.00;;;;;11.36;78.47;98045.75;5033448;28;45419;-65
2022/03/30 07:32:45;;;;;;;;;25.00;22.33;;;;;11.40;78.71;98051.69;5034772;28;45448;-65
2022/03/30 07:35:13;;;;;;;;;25.00;21.67;;;;;11.47;78.57;98045.09;5034176;28;45273;-65
2022/03/30 07:37:40;;;;;;;;;25.67;23.33;;;;;11.59;78.19;98041.72;5035123;28;45427;-65
2022/03/30 07:40:08;;;;;;;;;25.00;22.33;;;;;11.70;77.23;98039.28;5034748;28;45471;-65
2022/03/30 07:42:34;;;;;;;;;22.67;21.33;;;;;11.77;76.78;98037.97;5034547;28;45202;-65
2022/03/30 07:45:00;;;;;;;;;22.67;19.00;;;;;11.87;76.62;98046.19;5034805;28;46226;-65
2022/03/30 07:47:25;;;;;;;;;25.00;23.00;;;;;11.95;76.34;98032.47;5035287;28;45742;-65
2022/03/30 07:49:52;;;;;;;;;20.00;18.33;;;;;11.99;76.76;98047.19;5034513;28;45457;-65
2022/03/30 07:52:18;;;;;;;;;30.00;25.67;;;;;12.00;76.83;98036.53;5035102;28;45467;-65
2022/03/30 07:54:44;;;;;;;;;22.00;20.67;;;;;12.06;76.53;98036.16;5034081;28;45477;-66
2022/03/30 07:57:10;;;;;;;;;25.33;21.67;;;;;12.14;75.71;98039.16;5034771;28;45519;-66
2022/03/30 07:59:35;;;;;;;;;25.00;20.33;;;;;12.20;75.72;98041.41;5050217;28;45376;-66
2022/03/30 08:02:01;;;;;;;;;22.33;21.33;;;;;12.26;75.33;98039.28;5034730;28;45350;-65
2022/03/30 08:04:27;;;;;;;;;31.00;27.00;;;;;12.31;75.45;98040.72;5034402;28;45396;-66
2022/03/30 08:06:52;;;;;;;;;25.67;22.33;;;;;12.39;76.07;98034.94;5034645;28;45465;-66
2022/03/30 08:09:18;;;;;;;;;22.00;19.00;;;;;12.49;75.40;98036.03;5034890;28;45310;-66
2022/03/30 08:11:44;;;;;;;;;23.00;21.00;;;;;12.62;75.07;98030.78;5034459;28;45349;-66
2022/03/30 08:14:11;;;;;;;;;25.33;24.00;;;;;12.76;75.57;98028.06;5033352;28;47466;-66
2022/03/30 08:16:37;;;;;;;;;24.33;23.00;;;;;12.92;74.41;98024.28;5034500;28;45434;-66
2022/03/30 08:19:02;;;;;;;;;27.00;25.67;;;;;13.04;73.51;98025.28;5050325;28;45373;-66
2022/03/30 08:24:12;;;;;;;;;30.33;28.67;;;;;13.12;74.64;98030.03;5034749;28;45424;-66
2022/03/30 08:26:39;;;;;;;;;38.33;32.00;;;;;13.15;74.42;98028.06;5034121;28;45450;-66
2022/03/30 08:29:06;;;;;;;;;35.00;31.33;;;;;13.22;74.46;98024.06;5033120;28;45442;-67
2022/03/30 08:31:32;;;;;;;;;29.67;28.33;;;;;13.32;74.45;98018.13;5034402;28;45215;-66
2022/03/30 08:33:58;;;;;;;;;36.33;33.00;;;;;13.45;73.88;98024.28;5034064;28;45493;-67
2022/03/30 08:36:23;;;;;;;;;44.00;36.67;;;;;13.55;73.71;98020.91;5033819;28;45480;-66
2022/03/30 08:38:49;;;;;;;;;38.33;30.33;;;;;13.67;73.92;98016.53;5034609;28;45407;-67
2022/03/30 08:41:14;;;;;;;;;35.00;31.00;;;;;13.83;73.50;98008.34;5034529;28;45307;-67
2022/03/30 08:43:40;;;;;;;;;35.67;31.67;;;;;14.00;73.17;98008.00;5033742;28;46095;-67
2022/03/30 08:46:06;;;;;;;;;32.67;30.33;;;;;14.16;72.46;98007.75;5034299;28;45471;-67
2022/03/30 08:48:31;;;;;;;;;42.00;32.67;;;;;14.28;72.54;98005.03;5032884;28;45489;-67
2022/03/30 08:50:59;;;;;;;;;21.00;16.33;;;;;14.46;72.14;98008.19;5034190;28;45378;-66
2022/03/30 08:53:26;;;;;;;;;31.67;29.33;;;;;14.60;70.51;97999.19;5032242;28;46468;-68
2022/03/30 08:55:53;;;;;;;;;29.67;28.33;;;;;14.71;71.09;98001.06;5033997;28;45379;-65
2022/03/30 08:58:18;;;;;;;;;32.00;28.00;;;;;14.84;70.68;98000.03;5033705;28;45394;-67
2022/03/30 09:00:43;;;;;;;;;34.00;31.33;;;;;14.94;69.66;97986.91;5033877;28;45440;-67
2022/03/30 09:03:09;;;;;;;;;28.33;24.00;;;;;14.99;69.46;97996.22;5033674;28;45496;-68
2022/03/30 09:05:37;;;;;;;;;31.33;27.67;;;;;15.02;68.56;97997.78;5033842;28;45408;-68
2022/03/30 09:08:20;;;;;;;;;32.33;30.00;;;;;15.11;68.35;97993.59;5033431;28;45343;-66
2022/03/30 09:10:48;;;;;;;;;25.67;22.00;;;;;15.19;66.72;97988.53;5034309;28;45462;-67
2022/03/30 09:13:14;;;;;;;;;35.00;29.00;;;;;15.30;67.88;97993.88;5036771;28;46396;-67
2022/03/30 09:15:41;;;;;;;;;26.33;22.33;;;;;15.42;66.57;97984.09;5037363;28;45424;-67
2022/03/30 09:18:09;;;;;;;;;28.33;24.67;;;;;15.56;66.80;97978.59;5037193;28;45413;-66
2022/03/30 09:20:40;;;;;;;;;31.67;28.67;;;;;15.74;65.83;97981.63;5037159;28;45314;-66
2022/03/30 09:23:08;;;;;;;;;31.33;27.33;;;;;15.91;65.86;97979.31;5036871;28;45563;-66
2022/03/30 09:25:34;;;;;;;;;31.33;27.33;;;;;16.09;64.74;97979.63;5037094;28;45426;-66
2022/03/30 09:28:01;;;;;;;;;18.67;17.33;;;;;16.24;64.35;97966.94;5036844;28;45298;-66
2022/03/30 09:30:28;;;;;;;;;21.33;18.67;;;;;16.28;62.04;97977.16;5036888;28;45546;-66
2022/03/30 09:32:57;;;;;;;;;27.33;24.33;;;;;16.28;62.93;97971.00;5036830;28;46538;-66
2022/03/30 09:35:41;;;;;;;;;13.67;13.00;;;;;16.29;60.95;97962.91;5036929;28;45437;-67
2022/03/30 09:38:09;;;;;;;;;14.50;13.50;;;;;16.42;60.84;97961.91;5052335;28;45412;-66
2022/03/30 09:40:47;;;;;;;;;14.25;14.00;;;;;16.54;59.76;97960.91;5068272;28;45748;-66
2022/03/30 09:43:30;;;;;;;;;17.50;14.50;;;;;16.65;59.25;97953.72;5036573;28;45491;-67
2022/03/30 09:46:02;;;;;;;;;20.50;19.00;;;;;16.70;58.33;97948.88;5036431;28;45433;-66
2022/03/30 09:48:29;;;;;;;;;20.00;18.67;;;;;16.75;58.33;97945.84;5037168;28;45365;-68
2022/03/30 09:50:56;;;;;;;;;17.75;13.75;;;;;16.83;58.96;97935.38;5036725;28;45492;-68
2022/03/30 09:53:25;;;;;;;;;11.50;11.50;;;;;16.86;58.04;97929.81;5051828;28;45779;-67
2022/03/30 09:55:59;;;;;;;;;17.75;15.00;;;;;16.78;57.47;97932.25;5036918;28;45480;-67
2022/03/30 09:58:27;;;;;;;;;22.33;16.67;;;;;16.72;58.01;97920.31;5036211;28;45440;-67
2022/03/30 10:01:01;;;;;;;;;17.25;15.25;;;;;16.65;57.54;97921.81;5036966;28;45385;-67
2022/03/30 10:03:43;;;;;;;;;16.67;15.33;;;;;16.54;58.08;97924.50;5036624;28;46307;-67
2022/03/30 10:06:11;;;;;;;;;18.00;15.00;;;;;16.48;56.78;97917.00;5036120;28;45447;-67
2022/03/30 10:08:42;;;;;;;;;17.50;16.00;;;;;16.44;56.72;97920.03;5036772;28;45402;-67
2022/03/30 10:11:10;;;;;;;;;17.25;16.50;;;;;16.36;56.34;97910.91;5036305;28;45381;-67
2022/03/30 10:13:37;;;;;;;;;13.50;12.00;;;;;16.23;55.54;97909.38;5035820;28;46244;-66
2022/03/30 10:16:06;;;;;;;;;17.25;14.25;;;;;16.04;55.61;97910.88;5036088;28;45207;-67
2022/03/30 10:18:32;;;;;;;;;17.50;15.25;;;;;15.86;55.78;97906.22;5035984;28;45451;-67
2022/03/30 10:21:35;;;;;;;;;12.25;12.25;;;;;15.71;56.83;97905.66;5036104;28;45393;-67
2022/03/30 10:24:20;;;;;;;;;10.50;10.50;;;;;15.61;56.44;97905.53;5017701;28;45551;-67
2022/03/30 10:27:19;;;;;;;;;26.33;25.67;;;;;15.39;60.88;97908.19;5035778;28;45391;-66
2022/03/30 10:29:54;;;;;;;;;26.67;22.67;;;;;15.08;61.14;97900.94;5036389;28;45464;-66
2022/03/30 10:32:24;;;;;;;;;24.67;22.67;;;;;14.85;61.74;97884.97;5035468;28;45355;-66
2022/03/30 10:35:04;;;;;;;;;25.33;24.33;;;;;14.78;63.30;97886.38;5035201;28;46257;-67
2022/03/30 10:37:43;;;;;;;;;28.33;25.00;;;;;14.70;63.47;97880.00;5035605;28;45416;-67
2022/03/30 10:40:16;;;;;;;;;22.00;19.33;;;;;14.59;64.46;97883.44;5036055;28;45429;-67
2022/03/30 10:42:47;;;;;;;;;24.67;24.33;;;;;14.45;64.37;97886.31;5035699;28;45441;-67
2022/03/30 10:45:28;;;;;;;;;37.67;33.00;;;;;14.31;64.14;97882.88;5035712;28;45683;-67
2022/03/30 10:48:09;;;;;;;;;36.33;32.00;;;;;14.19;65.70;97880.28;5034668;28;45294;-66
2022/03/30 10:50:36;;;;;;;;;37.67;30.67;;;;;14.09;65.73;97877.47;5035852;28;45591;-67
2022/03/30 10:53:01;;;;;;;;;25.00;22.00;;;;;14.03;66.14;97869.97;5035773;28;45368;-67
2022/03/30 10:55:33;;;;;;;;;32.67;29.00;;;;;13.94;66.12;97875.94;5035347;28;45977;-67
2022/03/30 10:58:03;;;;;;;;;31.67;30.00;;;;;13.82;66.35;97869.75;5035416;28;45477;-68
2022/03/30 11:00:36;;;;;;;;;33.33;30.00;;;;;13.74;66.37;97866.81;5035841;28;45362;-68
2022/03/30 11:03:25;;;;;;;;;26.33;22.67;;;;;13.70;66.46;97872.47;5035582;28;45588;-68
2022/03/30 11:06:05;;;;;;;;;25.00;23.00;;;;;13.63;65.57;97861.44;5035133;28;45739;-67
2022/03/30 11:08:33;;;;;;;;;17.67;16.33;;;;;13.59;67.23;97863.47;5035431;28;45414;-68
2022/03/30 11:11:20;;;;;;;;;25.67;20.67;;;;;13.63;67.10;97861.44;5035615;28;45441;-68
2022/03/30 11:13:45;;;;;;;;;21.33;20.00;;;;;13.63;65.72;97861.44;5035151;28;45368;-67
2022/03/30 11:16:11;;;;;;;;;20.67;18.33;;;;;13.60;66.00;97853.72;5035250;28;46027;-67
2022/03/30 11:18:54;;;;;;;;;19.00;18.00;;;;;13.62;66.41;97857.09;5035260;28;45590;-67
2022/03/30 11:21:21;;;;;;;;;24.33;20.33;;;;;13.68;66.88;97847.88;5035512;28;45301;-67
2022/03/30 11:23:58;;;;;;;;;22.67;19.67;;;;;13.78;66.75;97846.25;5035185;28;45436;-67
2022/03/30 11:26:49;;;;;;;;;26.67;23.67;;;;;13.82;66.78;97850.34;5034841;28;46556;-67